Time;durP1;ratioP1;P1;durP2;ratioP2;P2;SDS_P1;SDS_P2;PMS_P1;PMS_P2;Temp;Humidity;BMP_temperature;BMP_pressure;BME280_temperature;BME280_humidity;BME280_pressure;Samples;Min_cycle;Max_cycle;Signal;HPM_P1;HPM_P2
2022/06/11 00:01:30;;;;;;;10.35;2.55;;;;;;;48.22;12.43;100509.16;5086896;28;20060;-60
2022/06/11 00:04:03;;;;;;;10.52;2.55;;;;;;;50.00;10.88;100503.88;5090962;28;20055;-59
2022/06/11 00:06:34;;;;;;;17.00;3.42;;;;;;;51.08;10.80;100502.47;5085344;28;20036;-59
2022/06/11 00:09:02;;;;;;;6.72;2.17;;;;;;;50.45;10.81;100504.00;5089986;28;20051;-59
2022/06/11 00:11:29;;;;;;;7.90;2.60;;;;;;;51.02;9.96;100496.00;5087036;28;20028;-60
2022/06/11 00:13:55;;;;;;;9.00;2.55;;;;;;;51.23;10.83;100493.22;5081433;28;20032;-60
2022/06/11 00:16:25;;;;;;;8.98;2.22;;;;;;;51.28;9.84;100485.75;5091856;28;20109;-60
2022/06/11 00:18:55;;;;;;;9.52;2.65;;;;;;;51.36;9.82;100489.59;5092539;28;20043;-59
2022/06/11 00:21:24;;;;;;;12.73;2.72;;;;;;;51.10;9.74;100480.84;5091412;28;20020;-60
2022/06/11 00:23:51;;;;;;;9.68;2.55;;;;;;;50.84;10.59;100485.25;5092614;28;20040;-59
2022/06/11 00:26:20;;;;;;;8.38;2.50;;;;;;;49.97;10.75;100481.03;5092555;28;20107;-59
2022/06/11 00:28:48;;;;;;;10.35;2.45;;;;;;;49.24;11.50;100479.78;5092262;28;20113;-60
2022/06/11 00:31:15;;;;;;;7.35;2.22;;;;;;;48.41;11.32;100484.94;5088071;28;20052;-61
2022/06/11 00:33:42;;;;;;;9.57;2.83;;;;;;;47.89;11.60;100487.06;5090222;28;20630;-60
2022/06/11 00:36:10;;;;;;;9.15;2.45;;;;;;;47.64;12.50;100486.09;5091428;28;20028;-58
2022/06/11 00:38:39;;;;;;;11.25;2.60;;;;;;;47.89;11.80;100484.16;5091871;28;20036;-59
2022/06/11 00:41:07;;;;;;;13.70;2.60;;;;;;;47.71;12.30;100479.78;5091827;28;20036;-60
2022/06/11 00:43:37;;;;;;;21.27;2.95;;;;;;;47.67;12.20;100480.06;5085992;28;20029;-59
2022/06/11 00:46:32;;;;;;;11.73;2.63;;;;;;;47.64;12.38;100488.97;5083056;28;20026;-60
2022/06/11 00:49:00;;;;;;;10.57;2.15;;;;;;;47.46;12.41;100488.22;5075512;28;20111;-60
2022/06/11 00:51:27;;;;;;;10.15;2.30;;;;;;;47.23;12.17;100493.25;5089368;28;20081;-59
2022/06/11 00:54:03;;;;;;;12.93;2.13;;;;;;;47.24;12.65;100500.59;5092086;28;20051;-59
2022/06/11 00:56:38;;;;;;;9.07;2.38;;;;;;;47.24;12.59;100494.84;5092518;28;20478;-60
2022/06/11 00:59:11;;;;;;;9.60;2.20;;;;;;;46.06;12.88;100496.00;5091935;28;20051;-58
2022/06/11 01:01:39;;;;;;;;;;;;;;;46.08;13.02;100499.91;5092644;28;20098;-59
2022/06/11 01:04:38;;;;;;;9.60;2.45;;;;;;;45.82;13.03;100492.75;5092755;28;20518;-59
2022/06/11 01:07:36;;;;;;;20.90;2.80;;;;;;;45.96;13.07;100488.84;5076471;28;20452;-59
2022/06/11 01:10:28;;;;;;;18.48;2.97;;;;;;;45.82;13.82;100493.53;5091550;28;20107;-59
2022/06/11 01:13:48;;;;;;;16.33;3.00;;;;;;;45.11;14.36;100499.09;5081772;28;20428;-59
2022/06/11 01:16:27;;;;;;;12.88;2.65;;;;;;;45.11;14.32;100496.22;5076545;28;20036;-60
2022/06/11 01:19:04;;;;;;;13.95;2.47;;;;;;;44.86;14.41;100500.66;5093717;28;20571;-59
2022/06/11 01:21:46;;;;;;;8.13;2.28;;;;;;;44.58;14.58;100497.56;5092620;28;20044;-60
2022/06/11 01:24:34;;;;;;;19.45;3.10;;;;;;;44.47;14.79;100510.97;5090980;28;20393;-60
2022/06/11 01:27:10;;;;;;;10.05;2.60;;;;;;;44.30;14.91;100497.25;5095463;28;20035;-61
2022/06/11 01:29:52;;;;;;;16.10;2.80;;;;;;;44.21;15.09;100496.66;5095936;28;20082;-60
2022/06/11 01:32:27;;;;;;;18.90;3.10;;;;;;;44.06;15.04;100501.66;5081097;28;20099;-59
2022/06/11 01:35:06;;;;;;;17.27;2.50;;;;;;;43.97;15.34;100493.97;5094932;28;20124;-59
2022/06/11 01:37:47;;;;;;;13.35;2.22;;;;;;;43.48;15.63;100497.75;5090790;28;20040;-60
2022/06/11 01:40:27;;;;;;;14.98;2.40;;;;;;;43.29;15.89;100498.00;5094906;28;20032;-59
2022/06/11 01:42:59;;;;;;;10.18;2.50;;;;;;;42.97;16.19;100493.31;5084039;28;20063;-59
2022/06/11 01:45:37;;;;;;;10.80;2.35;;;;;;;42.67;16.37;100504.72;5088662;28;20024;-58
2022/06/11 01:48:06;;;;;;;14.27;2.83;;;;;;;42.67;16.37;100507.59;5088898;28;20036;-59
2022/06/11 01:50:39;;;;;;;16.13;2.70;;;;;;;42.42;16.25;100508.16;5092543;28;20115;-59
2022/06/11 01:53:24;;;;;;;12.68;2.40;;;;;;;42.22;16.54;100509.59;5095415;28;20046;-59
2022/06/11 01:55:54;;;;;;;17.40;2.63;;;;;;;42.11;16.94;100520.78;5089889;28;20036;-60
2022/06/11 01:58:49;;;;;;;12.68;2.90;;;;;;;41.94;16.05;100516.78;5084237;28;20478;-60
2022/06/11 02:01:42;;;;;;;16.30;2.55;;;;;;;41.63;16.67;100517.91;5092075;28;20141;-58
2022/06/11 02:04:26;;;;;;;12.05;2.10;;;;;;;41.34;16.95;100515.69;5087849;28;20040;-59
2022/06/11 02:07:14;;;;;;;10.35;1.98;;;;;;;41.06;17.29;100509.28;5087394;28;20036;-60
2022/06/11 02:09:51;;;;;;;12.88;2.10;;;;;;;41.00;17.02;100524.69;5086780;28;20084;-61
2022/06/11 02:12:40;;;;;;;10.40;2.10;;;;;;;40.73;17.40;100522.66;5091635;28;20123;-64
2022/06/11 02:15:44;;;;;;;14.73;2.35;;;;;;;40.47;17.69;100523.03;5089927;28;20035;-60
2022/06/11 02:18:16;;;;;;;14.07;2.40;;;;;;;40.23;18.07;100518.44;5089779;28;20041;-59
2022/06/11 02:20:56;;;;;;;12.30;2.58;;;;;;;40.06;18.39;100517.97;5094587;28;20825;-59
2022/06/11 02:23:36;;;;;;;8.88;2.17;;;;;;;39.84;18.38;100520.88;5093407;28;20044;-60
2022/06/11 02:26:10;;;;;;;12.43;2.53;;;;;;;39.67;18.88;100523.22;5086883;28;20027;-60
2022/06/11 02:28:41;;;;;;;13.65;2.42;;;;;;;39.49;18.77;100521.09;5088959;28;20040;-60
2022/06/11 02:31:13;;;;;;;14.85;2.17;;;;;;;39.28;18.79;100519.91;5089034;28;20484;-58
2022/06/11 02:33:41;;;;;;;11.43;2.45;;;;;;;39.11;18.94;100529.94;5088765;28;20474;-60
2022/06/11 02:36:12;;;;;;;15.30;2.38;;;;;;;39.04;19.37;100527.38;5086789;28;20023;-60
2022/06/11 02:38:39;;;;;;;15.05;2.40;;;;;;;38.87;19.22;100526.03;5094826;28;20043;-61
2022/06/11 02:41:12;;;;;;;14.98;2.38;;;;;;;38.72;19.55;100539.19;5087526;28;20059;-60
2022/06/11 02:43:39;;;;;;;11.40;2.40;;;;;;;38.57;19.64;100527.53;5087286;28;20024;-60
2022/06/11 02:48:53;;;;;;;21.55;2.65;;;;;;;38.23;20.19;100532.00;5088894;28;20029;-61
2022/06/11 02:51:21;;;;;;;14.52;2.70;;;;;;;38.08;20.27;100536.59;5088195;28;20107;-62
2022/06/11 02:53:48;;;;;;;18.25;2.63;;;;;;;38.05;20.39;100543.94;5089558;28;20036;-61
2022/06/11 02:56:15;;;;;;;16.75;2.72;;;;;;;37.94;20.75;100549.22;5084975;28;20121;-59
2022/06/11 02:58:42;;;;;;;17.50;2.55;;;;;;;37.91;20.61;100552.97;5086094;28;20527;-59
2022/06/11 03:01:09;;;;;;;17.90;2.67;;;;;;;37.82;20.79;100558.53;5093003;28;20042;-60
2022/06/11 03:03:37;;;;;;;19.10;2.90;;;;;;;37.64;21.02;100550.59;5091123;28;20494;-60
2022/06/11 03:06:04;;;;;;;22.70;3.15;;;;;;;37.49;21.19;100563.63;5083096;28;20024;-61
2022/06/11 03:08:32;;;;;;;27.52;3.85;;;;;;;37.35;21.07;100559.25;5083110;28;20036;-61
2022/06/11 03:10:59;;;;;;;22.35;2.60;;;;;;;37.17;21.60;100564.63;5084114;28;20036;-61
2022/06/11 03:13:28;;;;;;;19.65;2.90;;;;;;;37.14;21.87;100562.69;5088915;28;20036;-60
2022/06/11 03:15:55;;;;;;;20.33;2.80;;;;;;;37.01;21.83;100564.72;5087413;28;20032;-61
2022/06/11 03:18:24;;;;;;;16.25;2.78;;;;;;;36.84;21.99;100573.31;5063458;28;20078;-62
2022/06/11 03:20:51;;;;;;;13.98;2.40;;;;;;;36.82;21.77;100578.63;5077861;28;20033;-61
2022/06/11 03:23:18;;;;;;;16.52;3.00;;;;;;;36.76;22.15;100583.19;5085747;28;20024;-60
2022/06/11 03:25:46;;;;;;;18.13;2.80;;;;;;;36.70;22.40;100581.38;5088493;28;20026;-60
2022/06/11 03:28:17;;;;;;;13.38;2.80;;;;;;;36.62;22.70;100587.22;5093429;28;20097;-60
2022/06/11 03:30:45;;;;;;;14.25;2.53;;;;;;;36.70;22.63;100589.88;5085877;28;20766;-60
2022/06/11 03:33:12;;;;;;;18.08;3.05;;;;;;;36.58;22.40;100592.19;5093139;28;20056;-61
2022/06/11 03:35:41;;;;;;;14.20;2.70;;;;;;;36.68;22.74;100595.19;5083206;28;20083;-60
2022/06/11 03:38:08;;;;;;;14.57;2.78;;;;;;;36.49;22.74;100594.09;5086568;28;20109;-60
2022/06/11 03:40:35;;;;;;;22.50;2.83;;;;;;;36.34;22.67;100596.53;5084289;28;20043;-60
2022/06/11 03:43:02;;;;;;;19.15;3.75;;;;;;;36.12;23.41;100598.28;5084696;28;20408;-60
2022/06/11 03:45:30;;;;;;;37.90;4.07;;;;;;;36.11;23.29;100603.16;5090763;28;20040;-60
2022/06/11 03:47:57;;;;;;;19.75;2.97;;;;;;;36.02;24.07;100608.63;5085870;28;20037;-61
2022/06/11 03:50:32;;;;;;;17.58;2.75;;;;;;;35.98;23.87;100605.09;5087885;28;20028;-61
2022/06/11 03:52:59;;;;;;;13.23;2.70;;;;;;;35.92;24.04;100609.72;5085935;28;20520;-63
2022/06/11 03:55:26;;;;;;;20.23;2.70;;;;;;;35.90;23.66;100609.31;5084985;28;20626;-60
2022/06/11 03:57:55;;;;;;;13.95;2.70;;;;;;;35.86;24.23;100619.94;5089075;28;20085;-59
2022/06/11 04:03:13;;;;;;;8.93;2.58;;;;;;;35.59;24.06;100623.78;5090458;28;20109;-59
2022/06/11 04:05:41;;;;;;;20.00;2.90;;;;;;;35.51;24.53;100636.47;5082621;28;20053;-62
2022/06/11 04:08:10;;;;;;;27.00;3.10;;;;;;;35.50;24.14;100632.06;5079295;28;20538;-59
2022/06/11 04:10:37;;;;;;;16.55;2.58;;;;;;;35.56;24.16;100635.19;5088063;28;20028;-60
2022/06/11 04:13:05;;;;;;;11.52;2.67;;;;;;;35.57;23.87;100637.56;5084818;28;20050;-59
2022/06/11 04:15:32;;;;;;;13.05;2.50;;;;;;;35.58;23.87;100636.31;5083518;28;20553;-62
2022/06/11 04:18:01;;;;;;;11.95;2.30;;;;;;;35.63;23.92;100647.09;5090708;28;20035;-61
2022/06/11 04:20:28;;;;;;;14.75;3.03;;;;;;;35.49;24.12;100647.44;5091708;28;20143;-62
2022/06/11 04:22:55;;;;;;;11.80;3.30;;;;;;;35.34;24.17;100652.56;5079860;28;20562;-64
2022/06/11 04:25:22;;;;;;;14.30;3.63;;;;;;;35.28;24.24;100653.50;5086193;28;20024;-59
2022/06/11 04:27:53;;;;;;;20.08;3.22;;;;;;;35.26;24.26;100661.63;5084152;28;20036;-60
2022/06/11 04:30:24;;;;;;;17.00;3.88;;;;;;;35.16;24.24;100662.66;5083191;28;20518;-61
2022/06/11 04:32:51;;;;;;;15.88;3.45;;;;;;;34.96;24.57;100669.09;5083319;28;20359;-59
2022/06/11 04:35:19;;;;;;;16.13;3.90;;;;;;;34.82;24.63;100666.50;5083139;28;20060;-60
2022/06/11 04:37:46;;;;;;;22.40;3.40;;;;;;;34.68;24.76;100673.25;5084120;28;20097;-61
2022/06/11 04:40:17;;;;;;;11.77;3.40;;;;;;;34.68;24.59;100680.91;5082583;28;20529;-60
2022/06/11 04:42:44;;;;;;;10.82;2.97;;;;;;;34.53;25.19;100666.25;5087666;28;20119;-60
2022/06/11 04:45:11;;;;;;;11.82;3.50;;;;;;;34.54;24.87;100671.47;5080209;28;20028;-59
2022/06/11 04:47:40;;;;;;;11.35;3.28;;;;;;;34.43;24.91;100675.69;5082739;28;20024;-60
2022/06/11 04:50:08;;;;;;;13.30;3.40;;;;;;;34.49;25.07;100683.25;5086618;28;20100;-60
2022/06/11 04:52:35;;;;;;;11.70;2.70;;;;;;;34.39;25.02;100678.59;5084217;28;20036;-60
2022/06/11 04:55:03;;;;;;;14.70;2.97;;;;;;;34.33;25.25;100691.56;5089979;28;20035;-60
2022/06/11 04:57:30;;;;;;;12.30;2.97;;;;;;;34.31;25.21;100699.66;5081889;28;20493;-59
2022/06/11 04:59:57;;;;;;;13.45;2.80;;;;;;;34.17;25.73;100700.69;5085104;28;20020;-61
2022/06/11 05:02:25;;;;;;;10.10;2.65;;;;;;;34.12;25.67;100701.19;5084884;28;20089;-61
2022/06/11 05:04:52;;;;;;;11.65;3.13;;;;;;;34.04;25.63;100707.34;5090067;28;20477;-61
2022/06/11 05:07:21;;;;;;;13.10;2.60;;;;;;;33.91;25.61;100704.28;5088474;28;20036;-60
2022/06/11 05:09:48;;;;;;;7.60;2.40;;;;;;;34.08;25.51;100702.44;5084017;28;20024;-59
2022/06/11 05:12:17;;;;;;;9.75;2.58;;;;;;;34.03;25.82;100711.38;5076929;28;20032;-62
2022/06/11 05:14:44;;;;;;;37.42;4.32;;;;;;;33.92;25.67;100715.16;5076010;28;20019;-59
2022/06/11 05:17:11;;;;;;;15.45;2.47;;;;;;;33.73;26.25;100718.63;5079740;28;20033;-60
2022/06/11 05:19:38;;;;;;;15.02;2.50;;;;;;;33.62;26.25;100729.25;5097824;28;20035;-62
2022/06/11 05:22:05;;;;;;;9.55;2.65;;;;;;;33.51;26.79;100725.75;5088365;28;20032;-59
2022/06/11 05:24:33;;;;;;;9.18;2.42;;;;;;;33.47;27.08;100730.66;5093611;28;20068;-62
2022/06/11 05:27:06;;;;;;;11.70;2.25;;;;;;;33.39;26.58;100732.75;5083773;28;20371;-61
2022/06/11 05:29:48;;;;;;;7.97;2.45;;;;;;;33.51;26.87;100737.03;5082361;28;20044;-61
2022/06/11 05:32:17;;;;;;;6.80;2.78;;;;;;;33.44;26.60;100735.13;5082199;28;20028;-60
2022/06/11 05:34:44;;;;;;;11.90;2.80;;;;;;;33.41;26.94;100729.53;5078293;28;20078;-61
2022/06/11 05:37:12;;;;;;;9.13;2.70;;;;;;;33.31;27.04;100723.56;5092706;28;20120;-61
2022/06/11 05:39:41;;;;;;;8.80;2.70;;;;;;;33.31;26.62;100725.56;5080761;28;20377;-60
2022/06/11 05:42:09;;;;;;;11.27;3.22;;;;;;;33.22;27.06;100720.47;5086594;28;20405;-61
2022/06/11 05:44:36;;;;;;;7.38;3.00;;;;;;;33.26;27.40;100726.84;5088460;28;20031;-61
2022/06/11 05:47:05;;;;;;;9.50;3.58;;;;;;;33.21;27.23;100721.66;5094324;28;20459;-59
2022/06/11 05:49:37;;;;;;;13.00;5.03;;;;;;;33.11;26.75;100716.94;5089490;28;20028;-59
2022/06/11 05:52:12;;;;;;;10.40;3.42;;;;;;;33.18;27.42;100730.16;5088847;28;20101;-60
2022/06/11 05:54:40;;;;;;;9.07;3.40;;;;;;;33.06;27.70;100731.50;5084504;28;20039;-59
2022/06/11 05:57:12;;;;;;;9.77;3.30;;;;;;;32.97;27.23;100722.72;5086320;28;20050;-60
2022/06/11 05:59:44;;;;;;;13.32;2.92;;;;;;;32.84;28.36;100727.28;5087896;28;20033;-61
2022/06/11 06:02:14;;;;;;;8.68;2.92;;;;;;;32.75;28.07;100720.09;5088584;28;20040;-61
2022/06/11 06:04:41;;;;;;;20.75;3.25;;;;;;;32.66;28.47;100711.31;5093003;28;20443;-61
2022/06/11 06:07:10;;;;;;;11.13;2.42;;;;;;;32.58;28.37;100715.44;5092171;28;20020;-61
2022/06/11 06:09:37;;;;;;;12.68;2.50;;;;;;;32.54;28.52;100722.31;5076332;28;20038;-61
2022/06/11 06:12:05;;;;;;;14.88;2.53;;;;;;;32.47;28.64;100732.41;5094719;28;20020;-60
2022/06/11 06:14:32;;;;;;;14.43;2.72;;;;;;;32.41;28.86;100727.63;5094226;28;20039;-60
2022/06/11 06:16:59;;;;;;;18.35;3.20;;;;;;;32.44;28.47;100732.44;5094619;28;20016;-60
2022/06/11 06:19:26;;;;;;;9.98;3.00;;;;;;;32.39;28.97;100730.06;5077839;28;20063;-60
2022/06/11 06:21:53;;;;;;;13.90;3.90;;;;;;;32.35;29.25;100718.84;5092586;28;20059;-60
2022/06/11 06:24:19;;;;;;;16.23;3.28;;;;;;;32.30;29.05;100726.91;5086105;28;20135;-59
2022/06/11 06:26:46;;;;;;;16.85;4.40;;;;;;;32.47;28.66;100718.31;5092620;28;20070;-60
2022/06/11 06:29:14;;;;;;;26.23;6.80;;;;;;;32.31;28.89;100714.44;5094450;28;20032;-60
2022/06/11 06:31:41;;;;;;;29.73;5.75;;;;;;;32.19;29.58;100726.97;5075546;28;20020;-58
2022/06/11 06:34:07;;;;;;;14.00;4.03;;;;;;;32.10;29.92;100713.34;5077162;28;20115;-58
2022/06/11 06:36:34;;;;;;;21.98;4.22;;;;;;;31.98;30.33;100716.69;5079754;28;20032;-58
2022/06/11 06:39:02;;;;;;;13.38;3.60;;;;;;;31.91;30.55;100722.31;5083249;28;20035;-58
2022/06/11 06:41:28;;;;;;;16.25;3.30;;;;;;;31.76;30.96;100709.56;5089814;28;20028;-59
2022/06/11 06:43:55;;;;;;;13.75;3.45;;;;;;;31.75;31.21;100716.38;5084938;28;20111;-60
2022/06/11 06:46:23;;;;;;;8.80;2.95;;;;;;;31.61;30.93;100702.41;5081727;28;20473;-60
2022/06/11 06:48:50;;;;;;;15.50;3.45;;;;;;;31.64;30.91;100713.63;5079509;28;20037;-59
2022/06/11 06:51:18;;;;;;;13.27;2.92;;;;;;;31.62;31.31;100709.63;5080293;28;20366;-59
2022/06/11 06:53:47;;;;;;;9.23;2.80;;;;;;;31.57;31.53;100708.81;5084257;28;20487;-58
2022/06/11 06:56:13;;;;;;;18.33;3.58;;;;;;;31.51;31.45;100706.84;5080721;28;20486;-61
2022/06/11 06:58:40;;;;;;;14.85;3.80;;;;;;;31.43;31.46;100711.72;5082144;28;20047;-60
2022/06/11 07:01:07;;;;;;;19.58;4.05;;;;;;;31.39;31.58;100713.72;5079509;28;20028;-61
2022/06/11 07:03:34;;;;;;;15.18;4.15;;;;;;;31.30;32.24;100707.75;5082053;28;20115;-60
2022/06/11 07:06:05;;;;;;;14.93;4.20;;;;;;;31.26;32.07;100704.16;5078879;28;20082;-58
2022/06/11 07:08:33;;;;;;;15.60;4.45;;;;;;;31.32;32.16;100704.53;5081266;28;20036;-60
2022/06/11 07:11:00;;;;;;;20.98;4.43;;;;;;;31.30;32.02;100699.31;5078160;28;20028;-59
2022/06/11 07:13:27;;;;;;;19.98;4.55;;;;;;;31.27;31.99;100711.38;5081736;28;20296;-61
2022/06/11 07:15:56;;;;;;;17.63;4.93;;;;;;;31.24;31.77;100698.94;5088872;28;20412;-60
2022/06/11 07:18:34;;;;;;;23.35;5.65;;;;;;;31.08;32.58;100689.34;5090493;28;20039;-60
2022/06/11 07:21:06;;;;;;;13.73;4.88;;;;;;;31.14;32.72;100701.75;5087110;28;20124;-61
2022/06/11 07:23:52;;;;;;;18.50;5.35;;;;;;;31.12;32.82;100695.75;5083739;28;20481;-60
2022/06/11 07:26:27;;;;;;;15.93;5.38;;;;;;;31.04;32.85;100696.94;5088336;28;20397;-61
2022/06/11 07:29:00;;;;;;;21.05;5.28;;;;;;;31.05;33.05;100687.31;5088510;28;20549;-62
2022/06/11 07:31:31;;;;;;;19.05;5.20;;;;;;;30.98;32.89;100696.56;5090501;28;20044;-62
2022/06/11 07:34:00;;;;;;;19.65;5.85;;;;;;;30.89;34.43;100684.97;5085004;28;20529;-61
2022/06/11 07:36:27;;;;;;;21.95;6.00;;;;;;;30.92;34.74;100693.38;5086635;28;20147;-60
2022/06/11 07:38:54;;;;;;;17.98;6.28;;;;;;;30.89;35.18;100699.81;5086749;28;20486;-61
2022/06/11 07:41:20;;;;;;;18.63;6.25;;;;;;;30.82;35.33;100697.00;5082252;28;20035;-61
2022/06/11 07:43:47;;;;;;;19.90;5.60;;;;;;;30.76;36.03;100695.81;5084197;28;20036;-63
2022/06/11 07:46:14;;;;;;;16.05;5.88;;;;;;;30.67;36.76;100687.00;5088596;28;20017;-61
2022/06/11 07:48:41;;;;;;;20.90;5.47;;;;;;;30.63;36.93;100677.78;5087581;28;20060;-60
2022/06/11 07:51:08;;;;;;;17.90;4.90;;;;;;;30.65;37.31;100692.22;5086201;28;20023;-59
2022/06/11 07:53:34;;;;;;;19.25;5.00;;;;;;;30.52;37.91;100689.00;5086825;28;20067;-63
2022/06/11 07:56:01;;;;;;;18.83;4.10;;;;;;;30.44;37.91;100686.59;5088702;28;20077;-62
2022/06/11 07:58:33;;;;;;;15.07;4.15;;;;;;;30.37;38.37;100693.00;5085749;28;20409;-62
2022/06/11 08:01:00;;;;;;;21.13;5.60;;;;;;;30.27;39.23;100679.78;5083526;28;20054;-62
2022/06/11 08:03:28;;;;;;;16.65;5.90;;;;;;;30.25;39.75;100680.19;5087288;28;20097;-59
2022/06/11 08:05:56;;;;;;;18.25;7.13;;;;;;;30.12;40.18;100670.56;5086662;28;20059;-61
2022/06/11 08:08:22;;;;;;;18.02;6.65;;;;;;;30.06;40.10;100670.16;5086553;28;20028;-60
2022/06/11 08:10:49;;;;;;;19.90;5.90;;;;;;;29.99;41.03;100672.13;5085436;28;20393;-64
2022/06/11 08:13:16;;;;;;;15.50;5.93;;;;;;;29.99;41.21;100674.94;5080276;28;20115;-62
2022/06/11 08:15:45;;;;;;;19.92;6.38;;;;;;;29.92;41.39;100672.91;5080136;28;20070;-61
2022/06/11 08:18:13;;;;;;;22.60;5.72;;;;;;;29.86;41.36;100676.50;5087622;28;20022;-62
2022/06/11 08:20:41;;;;;;;16.08;6.03;;;;;;;29.81;42.13;100666.50;5084429;28;20581;-61
2022/06/11 08:23:09;;;;;;;19.27;5.43;;;;;;;29.76;42.58;100664.06;5085719;28;20035;-61
2022/06/11 08:25:36;;;;;;;21.23;6.07;;;;;;;29.68;42.94;100671.66;5081929;28;20111;-60
2022/06/11 08:28:03;;;;;;;21.05;6.00;;;;;;;29.61;43.69;100668.81;5083286;28;20070;-60
2022/06/11 08:30:32;;;;;;;17.50;5.47;;;;;;;29.57;43.72;100670.81;5083825;28;20549;-60
2022/06/11 08:33:02;;;;;;;21.42;5.40;;;;;;;29.55;43.93;100670.41;5087503;28;20127;-61
2022/06/11 08:35:31;;;;;;;14.73;5.07;;;;;;;29.46;44.22;100662.41;5085554;28;20028;-62
2022/06/11 08:37:59;;;;;;;18.48;5.00;;;;;;;29.44;44.55;100664.78;5081340;28;20043;-61
2022/06/11 08:40:42;;;;;;;14.80;5.07;;;;;;;29.41;44.50;100664.72;5083285;28;20030;-60
2022/06/11 08:43:37;;;;;;;15.00;4.78;;;;;;;29.38;44.91;100665.53;5078467;28;20401;-61
2022/06/11 08:46:07;;;;;;;12.02;4.07;;;;;;;29.32;45.40;100672.72;5078031;28;20028;-61
2022/06/11 08:48:34;;;;;;;19.25;4.68;;;;;;;29.33;44.37;100657.50;5086454;28;20498;-61
2022/06/11 08:51:07;;;;;;;22.63;5.35;;;;;;;29.28;45.66;100664.31;5092093;28;20023;-60
2022/06/11 08:53:37;;;;;;;24.17;5.25;;;;;;;29.19;45.75;100653.44;5089046;28;20465;-61
2022/06/11 08:56:04;;;;;;;17.25;4.72;;;;;;;29.14;45.32;100655.84;5079416;28;20023;-60
2022/06/11 08:58:39;;;;;;;16.40;5.03;;;;;;;29.09;45.67;100654.22;5080293;28;20102;-60
2022/06/11 09:01:30;;;;;;;16.50;5.40;;;;;;;29.06;45.80;100654.97;5088100;28;20042;-61
2022/06/11 09:04:21;;;;;;;17.23;5.68;;;;;;;29.07;45.73;100651.00;5078553;28;20093;-60
2022/06/11 09:07:26;;;;;;;16.50;5.82;;;;;;;29.05;46.04;100653.38;5090274;28;20036;-61
2022/06/11 09:10:08;;;;;;;19.85;5.75;;;;;;;29.03;45.76;100647.38;5078001;28;20428;-60
2022/06/11 09:12:51;;;;;;;24.95;5.00;;;;;;;29.02;45.70;100654.16;5092231;28;20020;-60
2022/06/11 09:15:27;;;;;;;13.15;3.83;;;;;;;29.05;45.74;100646.97;5092393;28;20075;-62
2022/06/11 09:18:13;;;;;;;49.50;5.30;;;;;;;29.00;45.80;100658.56;5086698;28;20036;-61
2022/06/11 09:20:49;;;;;;;12.55;4.10;;;;;;;29.03;45.60;100649.38;5083997;28;20039;-62
2022/06/11 09:23:43;;;;;;;10.70;3.80;;;;;;;29.02;45.96;100658.97;5089661;28;20036;-60
2022/06/11 09:26:35;;;;;;;15.60;4.07;;;;;;;28.93;46.15;100653.72;5080097;28;20028;-61
2022/06/11 09:29:02;;;;;;;12.35;4.65;;;;;;;28.95;46.19;100653.34;5077223;28;20033;-61
2022/06/11 09:32:03;;;;;;;12.05;4.60;;;;;;;28.93;46.29;100650.13;5088643;28;20064;-60
2022/06/11 09:34:48;;;;;;;15.65;4.82;;;;;;;28.76;45.54;100654.41;5081302;28;20051;-61
2022/06/11 09:37:25;;;;;;;13.05;3.97;;;;;;;28.67;46.37;100651.13;5095386;28;20481;-60
2022/06/11 09:40:09;;;;;;;10.85;4.10;;;;;;;28.63;46.11;100655.91;5081450;28;20440;-63
2022/06/11 09:42:56;;;;;;;74.43;7.05;;;;;;;28.56;46.35;100646.28;5086484;28;20037;-60
2022/06/11 09:45:23;;;;;;;13.68;3.78;;;;;;;28.50;46.81;100656.22;5083289;28;20047;-60
2022/06/11 09:48:16;;;;;;;16.75;4.78;;;;;;;28.46;46.72;100669.38;5095660;28;20031;-60
2022/06/11 09:51:09;;;;;;;18.67;4.97;;;;;;;28.47;46.60;100668.19;5083252;28;20037;-60
2022/06/11 09:53:50;;;;;;;16.80;4.35;;;;;;;28.46;46.55;100672.16;5091100;28;20040;-61
2022/06/11 09:56:29;;;;;;;13.93;4.20;;;;;;;28.49;46.74;100678.97;5086891;28;20055;-60
2022/06/11 09:59:27;;;;;;;15.98;4.60;;;;;;;28.43;47.21;100686.91;5088545;28;20031;-60
2022/06/11 10:02:22;;;;;;;16.13;4.70;;;;;;;28.36;46.26;100675.66;5081012;28;20058;-61
2022/06/11 10:04:51;;;;;;;13.00;3.88;;;;;;;28.27;46.82;100676.00;5095473;28;20056;-61
2022/06/11 10:07:24;;;;;;;14.45;4.70;;;;;;;28.28;46.83;100691.59;5078211;28;20563;-63
2022/06/11 10:10:04;;;;;;;15.27;4.63;;;;;;;28.27;47.82;100689.19;5095564;28;20412;-62
2022/06/11 10:12:41;;;;;;;15.90;4.35;;;;;;;28.28;47.76;100696.38;5085832;28;20036;-62
2022/06/11 10:15:16;;;;;;;16.52;4.53;;;;;;;28.27;48.24;100686.38;5095433;28;20040;-62
2022/06/11 10:18:06;;;;;;;14.95;4.22;;;;;;;28.31;48.16;100690.00;5079310;28;20382;-61
2022/06/11 10:20:43;;;;;;;10.63;3.67;;;;;;;28.24;48.11;100692.72;5095000;28;20123;-62
2022/06/11 10:23:28;;;;;;;11.20;4.13;;;;;;;28.21;48.95;100699.09;5092992;28;20068;-62
2022/06/11 10:26:07;;;;;;;13.45;4.72;;;;;;;28.22;48.74;100698.69;5096217;28;20024;-61
2022/06/11 10:28:54;;;;;;;12.15;4.40;;;;;;;28.19;49.03;100698.66;5095068;28;20035;-62
2022/06/11 10:31:32;;;;;;;10.60;3.97;;;;;;;28.13;49.70;100689.81;5078153;28;20044;-62
2022/06/11 10:34:28;;;;;;;13.68;4.20;;;;;;;28.09;49.87;100696.56;5088486;28;20032;-61
2022/06/11 10:37:00;;;;;;;13.00;4.25;;;;;;;28.08;50.53;100690.16;5088750;28;20161;-60
2022/06/11 10:39:40;;;;;;;11.10;3.95;;;;;;;28.02;50.65;100690.91;5077520;28;20032;-60
2022/06/11 10:42:35;;;;;;;17.05;5.03;;;;;;;27.98;51.16;100697.25;5087446;28;20032;-61
2022/06/11 10:45:02;;;;;;;;;;;;;;;27.97;51.17;100695.63;5089918;28;20085;-61
2022/06/11 10:47:38;;;;;;;12.93;4.68;;;;;;;27.89;51.96;100705.16;5094263;28;19916;-61
2022/06/11 10:50:14;;;;;;;14.90;4.55;;;;;;;27.80;51.69;100693.47;5087607;28;20070;-60
2022/06/11 10:52:59;;;;;;;11.57;4.72;;;;;;;27.73;52.62;100695.38;5076215;28;20037;-60
2022/06/11 10:55:49;;;;;;;15.10;6.95;;;;;;;27.79;52.55;100705.81;5092708;28;20061;-62
2022/06/11 10:58:28;;;;;;;23.10;6.93;;;;;;;27.76;52.35;100703.78;5085780;28;20032;-63
2022/06/11 11:00:58;;;;;;;18.15;7.82;;;;;;;27.71;52.46;100698.56;5087973;28;20036;-63
2022/06/11 11:03:48;;;;;;;14.48;7.80;;;;;;;27.72;52.22;100705.75;5076581;28;20102;-61
2022/06/11 11:06:26;;;;;;;17.77;7.72;;;;;;;27.68;52.61;100704.91;5080312;28;20119;-63
2022/06/11 11:09:11;;;;;;;15.13;6.80;;;;;;;27.65;53.05;100700.09;5085959;28;20070;-63
2022/06/11 11:11:44;;;;;;;;;;;;;;;27.63;52.85;100708.03;5074710;28;20413;-62
2022/06/11 11:14:41;;;;;;;17.85;5.68;;;;;;;27.51;53.23;100702.69;5092039;28;19922;-64
2022/06/11 11:17:20;;;;;;;17.35;5.75;;;;;;;27.49;53.20;100693.88;5092385;28;20498;-63
2022/06/11 11:22:39;;;;;;;13.07;4.72;;;;;;;27.35;53.39;100698.09;5082090;28;20028;-62
2022/06/11 11:25:15;;;;;;;17.65;5.30;;;;;;;27.37;53.38;100697.72;5089501;28;20035;-62
2022/06/11 11:27:47;;;;;;;11.52;4.47;;;;;;;27.37;53.25;100703.31;5077744;28;20034;-62
2022/06/11 11:30:31;;;;;;;14.10;4.18;;;;;;;27.38;53.04;100700.13;5093625;28;20188;-63
2022/06/11 11:33:13;;;;;;;16.15;4.55;;;;;;;27.38;52.55;100700.13;5079078;28;20040;-61
2022/06/11 11:35:41;;;;;;;15.32;4.90;;;;;;;27.25;53.06;100707.13;5077353;28;20047;-61
2022/06/11 11:38:37;;;;;;;15.73;4.97;;;;;;;27.23;53.21;100712.28;5093677;28;20173;-62
2022/06/11 11:41:04;;;;;;;16.90;4.80;;;;;;;27.23;53.21;100720.66;5069463;28;20051;-62
2022/06/11 11:43:41;;;;;;;18.33;5.47;;;;;;;27.18;52.95;100715.41;5092407;28;20055;-62
2022/06/11 11:46:23;;;;;;;25.70;6.25;;;;;;;27.15;53.30;100713.38;5093667;28;20031;-61
2022/06/11 11:48:52;;;;;;;15.38;6.53;;;;;;;27.11;53.67;100726.50;5079005;28;20032;-60
2022/06/11 11:51:31;;;;;;;14.43;6.65;;;;;;;27.07;54.03;100725.59;5089778;28;20546;-58
2022/06/11 11:54:24;;;;;;;14.77;5.30;;;;;;;27.06;53.83;100735.16;5079477;28;20036;-58
2022/06/11 11:57:04;;;;;;;25.92;5.68;;;;;;;27.07;53.81;100734.78;5092894;28;20040;-59